createdAt,value
2018-06-20T00:02:00.798Z,86.40
2018-06-20T00:04:29.276Z,85.90
2018-06-20T00:06:57.368Z,86.30
2018-06-20T00:09:25.611Z,86.50
2018-06-20T00:11:53.128Z,87.40
2018-06-20T00:14:20.662Z,87.00
2018-06-20T00:16:48.536Z,88.70
2018-06-20T00:19:16.074Z,88.30
2018-06-20T00:21:43.600Z,88.70
2018-06-20T00:24:11.132Z,87.70
2018-06-20T00:26:39.102Z,89.10
2018-06-20T00:29:06.632Z,88.00
2018-06-20T00:31:34.152Z,90.20
2018-06-20T00:34:02.707Z,87.60
2018-06-20T00:36:30.228Z,87.70
2018-06-20T00:38:58.220Z,88.20
2018-06-20T00:41:26.408Z,88.00
2018-06-20T00:46:22.376Z,87.60
2018-06-20T00:48:49.904Z,87.40
2018-06-20T00:56:21.397Z,87.50
2018-06-20T00:58:49.243Z,87.30
2018-06-20T01:01:17.771Z,87.80
2018-06-20T01:03:45.588Z,87.40
2018-06-20T01:06:13.360Z,87.40
2018-06-20T01:08:41.705Z,87.20
2018-06-20T01:11:09.616Z,87.10
2018-06-20T01:13:37.188Z,87.00
2018-06-20T01:16:05.817Z,86.90
2018-06-20T01:18:33.352Z,88.50
2018-06-20T01:21:01.105Z,88.70
2018-06-20T01:23:28.651Z,90.60
2018-06-20T01:25:57.008Z,89.50
2018-06-20T01:28:24.524Z,88.50
2018-06-20T01:30:52.920Z,89.10
2018-06-20T01:33:21.853Z,89.10
2018-06-20T01:35:49.994Z,88.30
2018-06-20T01:38:17.914Z,88.50
2018-06-20T01:40:45.431Z,88.30
2018-06-20T01:43:13.345Z,88.60
2018-06-20T01:45:41.297Z,88.30
2018-06-20T01:48:09.648Z,89.80
2018-06-20T01:50:37.185Z,88.90
2018-06-20T01:53:04.777Z,89.20
2018-06-20T01:55:32.372Z,89.20
2018-06-20T01:58:00.713Z,88.90
2018-06-20T02:00:32.113Z,88.40
2018-06-20T02:02:59.729Z,88.40
2018-06-20T02:05:27.868Z,89.00
2018-06-20T02:07:55.828Z,88.50
2018-06-20T02:10:23.396Z,89.60
2018-06-20T02:12:51.676Z,89.30
2018-06-20T02:15:19.648Z,90.50
2018-06-20T02:17:47.273Z,90.20
2018-06-20T02:20:15.476Z,90.10
2018-06-20T02:25:10.473Z,88.70
2018-06-20T02:27:38.337Z,89.30
2018-06-20T02:30:05.845Z,88.90
2018-06-20T02:32:34.681Z,88.80
2018-06-20T02:35:02.214Z,89.00
2018-06-20T02:37:30.281Z,88.90
2018-06-20T02:39:58.364Z,89.20
2018-06-20T02:42:25.897Z,89.60
2018-06-20T02:44:53.705Z,89.00
2018-06-20T02:47:27.538Z,88.80
2018-06-20T02:49:55.124Z,88.30
2018-06-20T02:52:22.889Z,88.10
2018-06-20T02:54:51.633Z,89.10
2018-06-20T02:59:47.130Z,90.20
2018-06-20T03:02:15.025Z,90.20
2018-06-20T03:04:43.083Z,89.60
2018-06-20T03:07:11.385Z,90.90
2018-06-20T03:09:39.265Z,91.90
2018-06-20T03:12:06.786Z,91.90
2018-06-20T03:14:34.298Z,90.70
2018-06-20T03:17:02.218Z,90.40
2018-06-20T03:19:30.497Z,90.40
2018-06-20T03:21:58.318Z,90.60
2018-06-20T03:24:25.930Z,92.30
2018-06-20T03:26:53.793Z,91.40
2018-06-20T03:29:21.628Z,92.00
2018-06-20T03:34:17.270Z,92.60
2018-06-20T03:36:44.777Z,93.90
2018-06-20T03:39:12.820Z,92.90
2018-06-20T03:41:40.329Z,92.60
2018-06-20T03:44:08.343Z,92.80
2018-06-20T03:46:36.194Z,91.30
2018-06-20T03:49:03.852Z,90.80
2018-06-20T03:51:31.393Z,90.30
2018-06-20T03:54:00.129Z,91.00
2018-06-20T03:56:27.649Z,91.30
2018-06-20T03:58:55.769Z,91.30
2018-06-20T04:01:24.256Z,91.20
2018-06-20T04:03:52.169Z,91.50
2018-06-20T04:06:19.764Z,90.90
2018-06-20T04:08:47.877Z,90.60
2018-06-20T04:11:15.553Z,91.90
2018-06-20T04:13:43.097Z,91.70
2018-06-20T04:16:11.228Z,91.20
2018-06-20T04:18:42.905Z,91.50
2018-06-20T04:21:11.811Z,91.70
2018-06-20T04:23:39.345Z,92.70
2018-06-20T04:26:08.731Z,92.40
2018-06-20T04:28:36.732Z,91.60
2018-06-20T04:31:05.338Z,91.30
2018-06-20T04:33:33.937Z,91.60
2018-06-20T04:36:01.516Z,91.70
2018-06-20T04:38:29.777Z,91.60
2018-06-20T04:40:57.935Z,91.40
2018-06-20T04:43:26.073Z,91.30
2018-06-20T04:45:54.129Z,91.20
2018-06-20T04:50:49.121Z,91.70
2018-06-20T04:53:17.308Z,90.50
2018-06-20T04:55:46.124Z,90.90
2018-06-20T04:58:15.017Z,90.40
2018-06-20T05:00:42.937Z,90.50
2018-06-20T05:03:10.465Z,90.30
2018-06-20T05:05:38.572Z,89.30
2018-06-20T05:08:07.725Z,88.30
2018-06-20T05:10:36.537Z,87.80
2018-06-20T05:17:59.940Z,86.20
2018-06-20T05:20:28.674Z,85.50
2018-06-20T05:22:56.252Z,85.60
2018-06-20T05:25:23.877Z,85.30
2018-06-20T05:27:51.844Z,85.20
2018-06-20T05:30:19.716Z,84.70
2018-06-20T05:35:15.227Z,83.90
2018-06-20T05:37:43.467Z,84.00
2018-06-20T05:40:11.036Z,83.30
2018-06-20T05:42:38.561Z,83.60
2018-06-20T05:45:07.265Z,83.20
2018-06-20T05:47:34.798Z,83.20
2018-06-20T05:52:31.569Z,82.50
2018-06-20T05:57:27.977Z,81.00
2018-06-20T05:59:55.812Z,80.90
2018-06-20T06:02:23.667Z,80.20
2018-06-20T06:04:51.306Z,80.20
2018-06-20T06:07:19.341Z,79.20
2018-06-20T06:09:47.185Z,80.30
2018-06-20T06:12:14.738Z,79.10
2018-06-20T06:14:42.364Z,79.50
2018-06-20T06:17:10.231Z,79.50
2018-06-20T06:19:37.769Z,79.10
2018-06-20T06:22:05.617Z,77.60
2018-06-20T06:24:33.171Z,76.70
2018-06-20T06:29:29.001Z,77.60
2018-06-20T06:31:57.075Z,76.10
2018-06-20T06:34:25.009Z,76.00
2018-06-20T06:36:52.569Z,76.20
2018-06-20T06:39:20.539Z,75.50
2018-06-20T06:41:48.065Z,74.60
2018-06-20T06:46:44.236Z,74.20
2018-06-20T06:49:13.071Z,75.00
2018-06-20T06:51:41.008Z,74.20
2018-06-20T06:54:09.177Z,73.80
2018-06-20T06:56:36.722Z,73.60
2018-06-20T06:59:04.388Z,73.00
2018-06-20T07:01:32.489Z,73.10
2018-06-20T07:06:27.552Z,72.40
2018-06-20T07:08:55.819Z,72.20
2018-06-20T07:11:23.380Z,72.70
2018-06-20T07:13:50.900Z,72.00
2018-06-20T07:16:18.996Z,71.00
2018-06-20T07:18:46.513Z,71.60
2018-06-20T07:21:14.037Z,70.60
2018-06-20T07:23:41.847Z,70.30
2018-06-20T07:26:09.766Z,71.00
2018-06-20T07:28:37.297Z,69.70
2018-06-20T07:31:05.001Z,70.20
2018-06-20T07:33:32.901Z,70.30
2018-06-20T07:36:00.620Z,69.20
2018-06-20T07:38:28.848Z,69.30
2018-06-20T07:40:57.003Z,68.60
2018-06-20T07:43:25.010Z,68.60
2018-06-20T07:45:53.151Z,69.00
2018-06-20T07:48:20.681Z,67.10
2018-06-20T07:50:48.954Z,66.20
2018-06-20T07:53:17.128Z,65.80
2018-06-20T07:55:44.700Z,64.80
2018-06-20T07:58:18.957Z,65.10
2018-06-20T08:03:25.404Z,63.50
2018-06-20T08:05:58.687Z,63.90
2018-06-20T08:08:33.058Z,62.70
2018-06-20T08:11:06.417Z,61.80
2018-06-20T08:13:39.625Z,62.60
2018-06-20T08:16:13.257Z,60.40
2018-06-20T08:18:46.285Z,61.00
2018-06-20T08:21:14.241Z,59.50
2018-06-20T08:23:41.760Z,59.20
2018-06-20T08:26:09.738Z,60.00
2018-06-20T08:28:37.529Z,58.60
2018-06-20T08:31:05.265Z,58.90
2018-06-20T08:33:33.496Z,54.80
2018-06-20T08:36:01.020Z,57.50
2018-06-20T08:38:29.201Z,57.90
2018-06-20T08:43:24.660Z,56.50
2018-06-20T08:45:52.529Z,53.20
2018-06-20T08:48:20.417Z,54.70
2018-06-20T08:50:47.988Z,54.90
2018-06-20T08:53:15.845Z,55.40
2018-06-20T08:55:43.965Z,56.00
2018-06-20T08:58:11.620Z,56.10
2018-06-20T09:00:44.825Z,55.80
2018-06-20T09:03:12.353Z,55.10
2018-06-20T09:05:45.465Z,54.80
2018-06-20T09:08:19.322Z,55.30
2018-06-20T09:10:58.418Z,53.10
2018-06-20T09:13:31.780Z,52.90
2018-06-20T09:16:05.374Z,52.60
2018-06-20T09:18:39.977Z,52.00
2018-06-20T09:23:36.026Z,53.60
2018-06-20T09:28:31.156Z,53.50
2018-06-20T09:33:26.557Z,54.30
2018-06-20T09:35:54.561Z,50.70
2018-06-20T09:38:22.540Z,52.00
2018-06-20T09:43:18.576Z,51.20
2018-06-20T09:45:46.664Z,50.50
2018-06-20T09:50:47.479Z,50.40
2018-06-20T09:53:15.625Z,49.20
2018-06-20T09:55:43.989Z,48.10
2018-06-20T09:58:11.577Z,49.60
2018-06-20T10:00:45.470Z,49.40
2018-06-20T10:03:18.850Z,51.50
2018-06-20T10:05:53.592Z,51.20
2018-06-20T10:08:26.832Z,48.70
2018-06-20T10:11:01.812Z,47.50
2018-06-20T10:13:33.912Z,47.70
2018-06-20T10:16:02.772Z,47.80
2018-06-20T10:20:58.237Z,48.30
2018-06-20T10:23:26.419Z,48.90
2018-06-20T10:25:53.984Z,47.50
2018-06-20T10:28:21.513Z,48.20
2018-06-20T10:33:17.257Z,48.80
2018-06-20T10:38:13.105Z,47.00
2018-06-20T10:40:40.713Z,47.40
2018-06-20T10:43:08.756Z,46.30
2018-06-20T10:45:42.777Z,45.50
2018-06-20T10:48:14.149Z,44.20
2018-06-20T10:50:42.297Z,45.90
2018-06-20T10:53:10.092Z,45.30
2018-06-20T10:55:39.209Z,46.00
2018-06-20T10:58:12.908Z,44.90
2018-06-20T11:00:47.732Z,44.40
2018-06-20T11:03:20.809Z,45.30
2018-06-20T11:05:55.023Z,45.20
2018-06-20T11:08:28.243Z,46.20
2018-06-20T11:11:01.541Z,45.30
2018-06-20T11:13:29.114Z,42.80
2018-06-20T11:15:57.435Z,45.90
2018-06-20T11:18:24.977Z,44.00
2018-06-20T11:20:59.440Z,43.20
2018-06-20T11:23:27.636Z,43.20
2018-06-20T11:25:56.135Z,43.60
2018-06-20T11:28:23.921Z,43.00
2018-06-20T11:30:51.489Z,44.30
2018-06-20T11:33:19.692Z,45.70
2018-06-20T11:35:47.873Z,44.50
2018-06-20T11:38:16.153Z,43.50
2018-06-20T11:40:44.908Z,43.00
2018-06-20T11:43:14.097Z,43.70
2018-06-20T11:45:48.177Z,44.30
2018-06-20T11:48:16.426Z,43.00
2018-06-20T11:50:44.156Z,42.90
2018-06-20T11:53:11.716Z,42.80
2018-06-20T11:55:43.020Z,43.20
2018-06-20T11:58:17.044Z,43.80
2018-06-20T12:00:50.420Z,43.20
2018-06-20T12:05:56.999Z,43.30
2018-06-20T12:08:30.881Z,42.90
2018-06-20T12:11:04.211Z,40.20
2018-06-20T12:16:12.652Z,41.10
2018-06-20T12:18:46.009Z,41.20
2018-06-20T12:21:19.457Z,41.90
2018-06-20T12:23:52.733Z,42.60
2018-06-20T12:31:32.457Z,40.60
2018-06-20T12:34:06.659Z,40.00
2018-06-20T12:36:39.853Z,41.40
2018-06-20T12:39:07.507Z,40.70
2018-06-20T12:41:41.738Z,40.80
2018-06-20T12:44:15.319Z,40.60
2018-06-20T12:46:54.149Z,40.40
2018-06-20T12:49:25.608Z,41.00
2018-06-20T12:51:53.128Z,41.30
2018-06-20T12:54:20.745Z,40.90
2018-06-20T12:56:48.370Z,41.80
2018-06-20T12:59:16.599Z,41.20
2018-06-20T13:01:44.148Z,41.20
2018-06-20T13:04:11.685Z,41.30
2018-06-20T13:14:03.249Z,39.90
2018-06-20T13:16:31.661Z,40.30
2018-06-20T13:21:28.956Z,40.40
2018-06-20T13:23:56.533Z,40.70
2018-06-20T13:26:24.338Z,41.60
2018-06-20T13:28:52.499Z,41.70
2018-06-20T13:31:26.090Z,41.70
2018-06-20T13:33:59.686Z,41.10
2018-06-20T13:36:33.420Z,41.70
2018-06-20T13:39:06.984Z,41.80
2018-06-20T13:41:40.485Z,41.80
2018-06-20T13:44:09.711Z,41.40
2018-06-20T13:46:43.473Z,41.90
2018-06-20T13:51:38.674Z,41.70
2018-06-20T13:54:06.254Z,40.70
2018-06-20T13:56:33.986Z,39.20
2018-06-20T13:59:01.619Z,38.40
2018-06-20T14:01:29.341Z,37.90
2018-06-20T14:03:57.107Z,38.00
2018-06-20T14:06:24.753Z,38.20
2018-06-20T14:08:52.745Z,37.70
2018-06-20T14:11:20.315Z,37.30
2018-06-20T14:13:47.850Z,35.80
2018-06-20T14:16:16.075Z,36.50
2018-06-20T14:18:44.474Z,36.10
2018-06-20T14:23:45.225Z,35.50
2018-06-20T14:26:12.858Z,35.90
2018-06-20T14:28:41.074Z,35.00
2018-06-20T14:31:15.097Z,35.00
2018-06-20T14:33:48.785Z,34.10
2018-06-20T14:39:59.681Z,34.50
2018-06-20T14:42:33.452Z,35.00
2018-06-20T14:47:34.975Z,34.60
2018-06-20T14:50:02.540Z,33.60
2018-06-20T14:52:30.093Z,33.70
2018-06-20T14:54:57.641Z,33.50
2018-06-20T14:57:25.342Z,33.50
2018-06-20T14:59:53.244Z,33.90
2018-06-20T15:02:20.785Z,33.70
2018-06-20T15:04:49.001Z,33.80
2018-06-20T15:07:16.633Z,33.30
2018-06-20T15:09:44.159Z,33.20
2018-06-20T15:12:11.721Z,33.70
2018-06-20T15:14:39.733Z,33.70
2018-06-20T15:17:14.122Z,33.30
2018-06-20T15:19:41.964Z,32.60
2018-06-20T15:22:09.586Z,32.50
2018-06-20T15:24:37.204Z,32.30
2018-06-20T15:27:11.521Z,31.90
2018-06-20T15:29:44.817Z,32.30
2018-06-20T15:33:21.342Z,31.60
2018-06-20T15:38:25.332Z,31.50
2018-06-20T15:40:52.860Z,31.80
2018-06-20T15:43:20.745Z,31.20
2018-06-20T15:45:48.988Z,31.60
2018-06-20T15:48:16.817Z,31.70
2018-06-20T15:50:44.673Z,31.40
2018-06-20T15:53:12.652Z,31.60
2018-06-20T15:55:40.193Z,31.10
2018-06-20T15:58:08.441Z,31.30
2018-06-20T16:00:36.009Z,31.40
2018-06-20T16:05:31.415Z,30.60
2018-06-20T16:07:59.736Z,31.10
2018-06-20T16:10:27.817Z,31.20
2018-06-20T16:12:55.676Z,31.00
2018-06-20T16:17:51.078Z,30.40
2018-06-20T16:20:24.234Z,31.10
2018-06-20T16:22:59.028Z,30.50
2018-06-20T16:25:33.255Z,30.60
2018-06-20T16:28:06.484Z,30.30
2018-06-20T16:30:36.365Z,30.70
2018-06-20T16:33:04.785Z,30.80
2018-06-20T16:35:34.140Z,30.80
2018-06-20T16:38:02.644Z,31.80
2018-06-20T16:40:30.162Z,33.10
2018-06-20T16:42:58.180Z,34.10
2018-06-20T16:45:26.194Z,34.40
2018-06-20T16:47:53.783Z,35.10
2018-06-20T16:50:21.305Z,34.50
2018-06-20T16:52:48.859Z,34.70
2018-06-20T16:55:17.060Z,34.70
2018-06-20T16:57:45.168Z,33.90
2018-06-20T17:00:13.156Z,33.20
2018-06-20T17:02:42.792Z,33.00
2018-06-20T17:05:10.907Z,32.80
2018-06-20T17:07:38.973Z,32.40
2018-06-20T17:10:07.040Z,32.20
2018-06-20T17:12:40.862Z,31.90
2018-06-20T17:15:15.244Z,32.10
2018-06-20T17:17:48.865Z,31.80
2018-06-20T17:20:22.057Z,32.00
2018-06-20T17:22:56.955Z,32.10
2018-06-20T17:30:23.519Z,31.00
2018-06-20T17:32:51.505Z,31.40
2018-06-20T17:35:19.576Z,31.00
2018-06-20T17:37:47.769Z,31.50
2018-06-20T17:40:16.028Z,31.70
2018-06-20T17:42:44.136Z,31.70
2018-06-20T17:45:12.809Z,33.20
2018-06-20T17:50:08.705Z,35.40
2018-06-20T17:52:36.708Z,36.40
2018-06-20T17:55:04.968Z,37.00
2018-06-20T17:57:33.105Z,38.40
2018-06-20T18:00:00.985Z,39.10
2018-06-20T18:02:28.489Z,40.10
2018-06-20T18:05:02.643Z,40.50
2018-06-20T18:10:10.058Z,41.30
2018-06-20T18:12:43.425Z,42.70
2018-06-20T18:15:16.721Z,42.20
2018-06-20T18:17:44.729Z,42.70
2018-06-20T18:20:12.593Z,43.10
2018-06-20T18:22:40.213Z,44.80
2018-06-20T18:25:08.043Z,44.90
2018-06-20T18:27:35.945Z,45.90
2018-06-20T18:30:04.122Z,45.50
2018-06-20T18:32:32.353Z,48.80
2018-06-20T18:37:27.733Z,46.70
2018-06-20T18:40:03.332Z,48.00
2018-06-20T18:44:59.564Z,48.20
2018-06-20T18:48:35.898Z,49.30
2018-06-20T18:51:04.411Z,50.00
2018-06-20T18:53:32.016Z,51.50
2018-06-20T18:55:59.891Z,52.70
2018-06-20T18:58:33.348Z,53.60
2018-06-20T19:03:41.145Z,57.40
2018-06-20T19:06:14.437Z,57.10
2018-06-20T19:08:47.752Z,56.00
2018-06-20T19:11:15.627Z,57.40
2018-06-20T19:16:11.222Z,57.20
2018-06-20T19:18:38.788Z,56.50
2018-06-20T19:21:06.825Z,56.40
2018-06-20T19:23:35.081Z,56.60
2018-06-20T19:28:31.133Z,56.60
2018-06-20T19:30:59.205Z,56.70
2018-06-20T19:33:27.410Z,56.80
2018-06-20T19:35:56.113Z,58.90
2018-06-20T19:38:24.985Z,59.40
2018-06-20T19:40:53.660Z,60.80
2018-06-20T19:43:21.689Z,60.00
2018-06-20T19:45:49.777Z,59.70
2018-06-20T19:48:17.716Z,61.80
2018-06-20T19:50:46.077Z,60.70
2018-06-20T19:55:43.026Z,62.50
2018-06-20T19:58:11.508Z,65.50
2018-06-20T20:00:39.548Z,63.00
2018-06-20T20:03:08.089Z,64.40
2018-06-20T20:08:04.208Z,63.40
2018-06-20T20:10:32.145Z,64.10
2018-06-20T20:13:00.431Z,64.90
2018-06-20T20:15:28.599Z,65.10
2018-06-20T20:17:56.756Z,66.10
2018-06-20T20:20:24.967Z,65.90
2018-06-20T20:22:52.549Z,65.50
2018-06-20T20:25:20.704Z,66.10
2018-06-20T20:27:48.948Z,68.40
2018-06-20T20:32:45.169Z,72.70
2018-06-20T20:35:13.889Z,68.60
2018-06-20T20:37:42.793Z,68.60
2018-06-20T20:40:11.129Z,68.20
2018-06-20T20:42:39.269Z,68.10
2018-06-20T20:45:07.630Z,69.20
2018-06-20T20:47:35.596Z,70.60
2018-06-20T20:50:03.785Z,69.60
2018-06-20T20:52:31.365Z,70.30
2018-06-20T20:54:58.990Z,70.20
2018-06-20T20:57:26.764Z,73.40
2018-06-20T21:02:22.532Z,75.50
2018-06-20T21:04:50.513Z,72.20
2018-06-20T21:07:18.404Z,71.30
2018-06-20T21:09:45.924Z,72.10
2018-06-20T21:12:13.842Z,72.80
2018-06-20T21:14:41.698Z,72.60
2018-06-20T21:17:09.741Z,72.50
2018-06-20T21:22:05.807Z,74.80
2018-06-20T21:24:33.785Z,74.90
2018-06-20T21:27:01.316Z,75.10
2018-06-20T21:29:29.281Z,75.60
2018-06-20T21:31:57.372Z,75.70
2018-06-20T21:34:25.722Z,76.10
2018-06-20T21:36:53.249Z,76.40
2018-06-20T21:39:21.284Z,75.00
2018-06-20T21:41:49.292Z,75.70
2018-06-20T21:44:17.361Z,75.20
2018-06-20T21:46:45.452Z,75.40
2018-06-20T21:49:13.457Z,74.90
2018-06-20T21:51:41.433Z,76.30
2018-06-20T21:54:09.369Z,78.30
2018-06-20T21:56:37.443Z,77.40
2018-06-20T21:59:05.273Z,77.20
2018-06-20T22:01:32.852Z,76.30
2018-06-20T22:04:00.489Z,77.10
2018-06-20T22:06:29.393Z,79.40
2018-06-20T22:08:57.450Z,80.90
2018-06-20T22:11:24.972Z,79.00
2018-06-20T22:13:52.500Z,78.20
2018-06-20T22:16:20.553Z,78.10
2018-06-20T22:18:48.596Z,78.80
2018-06-20T22:21:16.808Z,77.90
2018-06-20T22:23:44.452Z,78.00
2018-06-20T22:26:12.341Z,80.30
2018-06-20T22:28:39.859Z,78.90
2018-06-20T22:33:35.700Z,79.70
2018-06-20T22:38:31.249Z,78.60
2018-06-20T22:40:58.779Z,79.10
2018-06-20T22:43:26.908Z,80.30
2018-06-20T22:45:54.903Z,81.30
2018-06-20T22:48:22.420Z,81.90
2018-06-20T22:53:17.435Z,80.80
2018-06-20T22:55:45.640Z,81.10
2018-06-20T22:58:13.184Z,82.80
2018-06-20T23:03:08.348Z,80.50
2018-06-20T23:05:35.892Z,80.70
2018-06-20T23:08:03.828Z,81.70
2018-06-20T23:10:31.344Z,81.20
2018-06-20T23:12:59.504Z,81.30
2018-06-20T23:15:27.588Z,81.80
2018-06-20T23:17:55.469Z,82.40
2018-06-20T23:20:24.036Z,82.20
2018-06-20T23:22:52.223Z,82.50
2018-06-20T23:25:19.756Z,81.70
2018-06-20T23:27:47.275Z,82.20
2018-06-20T23:30:14.904Z,82.50
2018-06-20T23:32:43.214Z,82.70
2018-06-20T23:35:10.742Z,82.70
2018-06-20T23:37:38.835Z,83.50
2018-06-20T23:40:06.908Z,87.00
2018-06-20T23:42:34.450Z,84.30
2018-06-20T23:45:02.756Z,85.00
2018-06-20T23:47:30.542Z,84.60
2018-06-20T23:49:59.619Z,83.20
2018-06-20T23:52:27.147Z,83.90
2018-06-20T23:54:54.676Z,86.00
2018-06-20T23:57:22.742Z,85.30
2018-06-20T23:59:50.265Z,86.60
